Time;durP1;ratioP1;P1;durP2;ratioP2;P2;SDS_P1;SDS_P2;PMS_P1;PMS_P2;Temp;Humidity;BMP_temperature;BMP_pressure;BME280_temperature;BME280_humidity;BME280_pressure;Samples;Min_cycle;Max_cycle;Signal;HPM_P1;HPM_P2
2021/09/22 00:00:17;;;;;;;10.13;6.28;;;;;;;12.07;74.89;101815.41;4993073;28;20038;-75
2021/09/22 00:02:42;;;;;;;10.35;6.40;;;;;;;12.04;75.18;101819.56;5015654;28;20044;-75
2021/09/22 00:05:09;;;;;;;7.88;6.30;;;;;;;12.04;74.92;101818.72;5003285;28;20505;-75
2021/09/22 00:07:34;;;;;;;11.57;7.35;;;;;;;11.98;75.77;101825.34;5017594;28;20470;-75
2021/09/22 00:10:00;;;;;;;10.10;6.35;;;;;;;11.98;75.51;101817.00;5034632;28;20099;-76
2021/09/22 00:12:25;;;;;;;9.52;6.82;;;;;;;11.92;74.87;101812.53;4999108;28;20497;-76
2021/09/22 00:14:51;;;;;;;10.88;7.63;;;;;;;11.85;75.79;101816.41;5014136;28;20034;-76
2021/09/22 00:17:16;;;;;;;9.40;6.85;;;;;;;11.85;75.97;101809.97;4975118;28;20592;-75
2021/09/22 00:19:42;;;;;;;10.60;7.28;;;;;;;11.84;76.14;101806.34;5000691;28;20034;-76
2021/09/22 00:22:07;;;;;;;10.95;6.97;;;;;;;11.81;75.82;101817.19;4995640;28;20026;-75
2021/09/22 00:24:33;;;;;;;9.95;7.13;;;;;;;11.80;76.17;101805.22;4982751;28;20500;-76
2021/09/22 00:26:58;;;;;;;8.90;6.22;;;;;;;11.80;75.73;101809.94;4981914;28;20025;-75
2021/09/22 00:29:26;;;;;;;8.82;6.28;;;;;;;11.77;75.71;101811.31;5011788;28;20647;-76
2021/09/22 00:31:51;;;;;;;10.05;6.50;;;;;;;11.75;75.30;101799.63;5012798;28;20030;-75
2021/09/22 00:34:17;;;;;;;9.98;6.68;;;;;;;11.73;75.32;101801.00;4981667;28;20041;-76
2021/09/22 00:36:43;;;;;;;8.85;6.47;;;;;;;11.73;75.60;101799.06;5004183;28;20048;-75
2021/09/22 00:39:09;;;;;;;9.40;7.20;;;;;;;11.68;75.78;101796.25;5017371;28;20025;-75
2021/09/22 00:41:35;;;;;;;10.60;6.63;;;;;;;11.67;75.45;101793.72;5005595;28;20026;-76
2021/09/22 00:44:00;;;;;;;8.73;6.57;;;;;;;11.61;75.56;101796.47;5020871;28;20025;-76
2021/09/22 00:46:26;;;;;;;10.73;7.07;;;;;;;11.62;75.53;101794.56;4982699;28;20184;-76
2021/09/22 00:48:52;;;;;;;10.63;6.50;;;;;;;11.61;75.82;101790.09;5003266;28;20401;-75
2021/09/22 00:51:17;;;;;;;10.65;7.25;;;;;;;11.58;75.77;101787.84;5006630;28;20071;-76
2021/09/22 00:53:43;;;;;;;8.80;6.47;;;;;;;11.55;75.32;101780.88;4989010;28;20507;-75
2021/09/22 00:56:08;;;;;;;8.32;6.43;;;;;;;11.55;75.37;101774.47;5002526;28;20111;-75
2021/09/22 00:58:34;;;;;;;9.00;6.15;;;;;;;11.56;75.15;101767.78;5018826;28;20044;-76
2021/09/22 01:01:00;;;;;;;9.13;6.78;;;;;;;11.52;75.18;101769.44;5020920;28;20052;-75
2021/09/22 01:03:26;;;;;;;11.63;7.00;;;;;;;11.50;75.37;101766.09;4988797;28;20029;-75
2021/09/22 01:05:52;;;;;;;13.57;8.95;;;;;;;11.48;76.19;101762.72;5004372;28;20397;-75
2021/09/22 01:08:18;;;;;;;10.95;7.57;;;;;;;11.47;76.14;101761.91;4987795;28;20067;-75
2021/09/22 01:10:44;;;;;;;13.02;8.48;;;;;;;11.45;76.75;101758.56;5002139;28;20109;-75
2021/09/22 01:13:10;;;;;;;11.43;7.95;;;;;;;11.42;76.52;101750.75;5003371;28;20029;-74
2021/09/22 01:15:37;;;;;;;11.45;7.88;;;;;;;11.39;76.25;101757.72;5037941;28;20363;-75
2021/09/22 01:18:04;;;;;;;12.10;8.65;;;;;;;11.37;76.46;101751.56;4988143;28;20440;-75
2021/09/22 01:20:30;;;;;;;14.02;8.20;;;;;;;11.36;76.87;101749.88;5018063;28;20104;-75
2021/09/22 01:22:56;;;;;;;12.45;8.93;;;;;;;11.35;77.65;101745.44;5003932;28;20033;-75
2021/09/22 01:25:22;;;;;;;14.15;9.05;;;;;;;11.33;76.77;101744.84;5002986;28;20047;-75
2021/09/22 01:27:49;;;;;;;11.02;8.27;;;;;;;11.33;77.77;101744.03;4997523;28;20541;-75
2021/09/22 01:30:15;;;;;;;14.90;9.00;;;;;;;11.33;77.57;101746.81;5018986;28;20453;-75
2021/09/22 01:32:51;;;;;;;10.13;7.78;;;;;;;11.30;77.38;101745.41;5019527;28;20060;-75
2021/09/22 01:35:16;;;;;;;10.25;7.38;;;;;;;11.28;76.82;101741.22;5018541;28;20034;-75
2021/09/22 01:37:42;;;;;;;12.07;8.20;;;;;;;11.26;76.94;101738.72;5003620;28;20048;-74
2021/09/22 01:40:08;;;;;;;11.65;7.80;;;;;;;11.25;76.93;101731.47;5011613;28;20029;-75
2021/09/22 01:42:34;;;;;;;11.15;8.43;;;;;;;11.25;76.92;101731.47;5037145;28;20053;-75
2021/09/22 01:45:04;;;;;;;10.52;6.93;;;;;;;11.24;76.66;101723.41;5019907;28;20440;-75
2021/09/22 01:47:29;;;;;;;14.85;8.48;;;;;;;11.22;76.75;101725.59;5003352;28;20025;-74
2021/09/22 01:50:10;;;;;;;10.75;7.90;;;;;;;11.19;76.43;101727.81;5018502;28;20033;-74
2021/09/22 01:52:35;;;;;;;11.93;8.43;;;;;;;11.18;76.64;101722.53;5018189;28;20026;-75
2021/09/22 01:55:01;;;;;;;9.98;7.90;;;;;;;11.17;76.61;101721.69;5035922;28;20044;-74
2021/09/22 01:57:27;;;;;;;11.20;8.48;;;;;;;11.15;76.72;101720.28;5017720;28;20393;-74
2021/09/22 01:59:55;;;;;;;11.38;7.38;;;;;;;11.13;76.28;101716.94;5016677;28;20071;-75
2021/09/22 02:02:20;;;;;;;9.93;7.80;;;;;;;11.10;76.67;101712.75;4998983;28;20489;-76
2021/09/22 02:04:46;;;;;;;10.00;7.88;;;;;;;11.07;77.15;101718.84;4963955;28;20064;-76
2021/09/22 02:07:11;;;;;;;11.50;8.55;;;;;;;11.10;76.90;101718.31;5003025;28;20546;-76
2021/09/22 02:09:37;;;;;;;10.55;8.05;;;;;;;11.07;76.96;101712.44;5002344;28;20029;-76
2021/09/22 02:12:05;;;;;;;13.70;9.38;;;;;;;11.04;77.23;101710.22;5001630;28;20033;-76
2021/09/22 02:14:31;;;;;;;12.48;8.55;;;;;;;11.05;76.88;101709.09;5019502;28;20037;-76
2021/09/22 02:16:57;;;;;;;13.10;9.07;;;;;;;10.99;77.21;101712.94;5002751;28;20079;-76
2021/09/22 02:19:25;;;;;;;12.70;8.65;;;;;;;10.92;77.74;101710.38;5002271;28;20060;-76
2021/09/22 02:21:51;;;;;;;16.42;11.63;;;;;;;10.91;78.57;101709.56;5014836;28;20402;-76
2021/09/22 02:24:16;;;;;;;14.05;10.02;;;;;;;10.86;78.47;101709.50;5014294;28;20026;-75
2021/09/22 02:26:42;;;;;;;17.33;12.68;;;;;;;10.88;79.00;101718.44;5020027;28;20044;-75
2021/09/22 02:29:07;;;;;;;17.60;11.65;;;;;;;10.87;78.83;101713.16;5016459;28;20033;-75
2021/09/22 02:31:33;;;;;;;17.02;11.05;;;;;;;10.85;79.06;101716.19;5002986;28;20038;-75
2021/09/22 02:33:58;;;;;;;17.88;11.95;;;;;;;10.86;79.94;101720.63;5019013;28;20092;-75
2021/09/22 02:36:25;;;;;;;14.63;10.10;;;;;;;10.89;79.18;101714.56;5018281;28;20095;-75
2021/09/22 02:38:51;;;;;;;15.23;10.10;;;;;;;10.81;78.63;101712.28;4987346;28;20087;-75
2021/09/22 02:41:17;;;;;;;14.60;11.02;;;;;;;10.84;78.71;101710.91;5024089;28;20033;-75
2021/09/22 02:43:42;;;;;;;15.68;10.63;;;;;;;10.83;78.78;101700.88;5035086;28;20461;-75
2021/09/22 02:46:08;;;;;;;17.40;11.05;;;;;;;10.83;79.07;101689.75;5016750;28;20060;-75
2021/09/22 02:48:33;;;;;;;14.00;9.98;;;;;;;10.81;79.08;101692.81;5002977;28;20092;-75
2021/09/22 02:51:04;;;;;;;14.82;9.55;;;;;;;10.79;78.75;101683.91;5015288;28;20018;-76
2021/09/22 02:53:30;;;;;;;13.85;9.30;;;;;;;10.78;78.09;101687.81;4968786;28;20041;-75
2021/09/22 02:55:56;;;;;;;12.68;9.45;;;;;;;10.77;77.89;101685.28;5016844;28;20033;-75
2021/09/22 02:58:21;;;;;;;15.13;9.75;;;;;;;10.76;78.32;101689.19;5002473;28;20032;-75
2021/09/22 03:00:47;;;;;;;13.35;9.23;;;;;;;10.76;78.30;101694.72;5034673;28;20039;-75
2021/09/22 03:03:14;;;;;;;11.18;8.40;;;;;;;10.72;77.94;101686.06;5016862;28;20124;-76
2021/09/22 03:05:40;;;;;;;12.43;9.20;;;;;;;10.66;78.13;101693.53;5016501;28;20041;-76
2021/09/22 03:08:05;;;;;;;13.02;9.48;;;;;;;10.67;78.18;101698.00;5017588;28;20037;-76
2021/09/22 03:10:31;;;;;;;15.48;9.68;;;;;;;10.70;78.47;101696.63;4985539;28;20052;-75
2021/09/22 03:12:56;;;;;;;13.90;9.18;;;;;;;10.65;78.43;101705.75;5001808;28;20025;-75
2021/09/22 03:15:22;;;;;;;12.27;8.70;;;;;;;10.65;78.05;101702.97;5018340;28;20065;-76
2021/09/22 03:17:48;;;;;;;12.85;9.68;;;;;;;10.61;78.22;101692.66;5017295;28;20552;-76
2021/09/22 03:20:13;;;;;;;12.90;8.85;;;;;;;10.59;78.25;101706.00;4983889;28;20057;-76
2021/09/22 03:22:39;;;;;;;14.85;9.95;;;;;;;10.56;78.00;101707.34;5012717;28;20108;-76
2021/09/22 03:25:05;;;;;;;12.80;9.15;;;;;;;10.50;78.18;101709.25;5001669;28;20642;-75
2021/09/22 03:27:31;;;;;;;13.70;8.77;;;;;;;10.51;77.95;101716.47;4999687;28;20040;-75
2021/09/22 03:29:56;;;;;;;12.30;8.80;;;;;;;10.49;77.68;101713.13;5016817;28;20085;-75
2021/09/22 03:32:22;;;;;;;13.27;9.48;;;;;;;10.48;77.93;101717.00;5017445;28;20026;-76
2021/09/22 03:34:47;;;;;;;12.40;8.95;;;;;;;10.46;77.68;101704.47;5001385;28;20030;-75
2021/09/22 03:37:13;;;;;;;13.45;8.85;;;;;;;10.44;77.92;101704.72;5000579;28;20045;-75
2021/09/22 03:39:38;;;;;;;11.25;8.32;;;;;;;10.41;78.11;101702.50;4999775;28;20040;-75
2021/09/22 03:42:04;;;;;;;14.40;9.40;;;;;;;10.40;78.41;101698.03;4999972;28;20038;-75
2021/09/22 03:44:29;;;;;;;11.68;8.75;;;;;;;10.37;77.89;101701.34;5001695;28;20049;-75
2021/09/22 03:46:55;;;;;;;14.02;9.40;;;;;;;10.37;77.65;101697.75;5009349;28;20048;-75
2021/09/22 03:49:21;;;;;;;12.98;9.55;;;;;;;10.35;77.77;101706.31;4999762;28;20080;-75
2021/09/22 03:51:46;;;;;;;11.18;8.38;;;;;;;10.35;77.65;101706.31;5000168;28;20056;-75
2021/09/22 03:54:12;;;;;;;13.23;9.23;;;;;;;10.35;77.50;101702.72;5016934;28;20076;-75
2021/09/22 03:56:37;;;;;;;13.48;9.13;;;;;;;10.32;77.58;101704.06;5018535;28;20029;-75
2021/09/22 03:59:03;;;;;;;13.48;9.30;;;;;;;10.32;77.77;101694.91;4999752;28;20029;-76
2021/09/22 04:01:29;;;;;;;13.15;8.90;;;;;;;10.27;77.56;101693.75;4991962;28;20066;-75
2021/09/22 04:03:54;;;;;;;14.02;8.90;;;;;;;10.26;78.09;101685.66;5001510;28;20030;-75
2021/09/22 04:06:20;;;;;;;12.10;8.80;;;;;;;10.25;77.78;101689.53;5034482;28;20029;-75
2021/09/22 04:08:45;;;;;;;13.52;9.93;;;;;;;10.22;78.15;101679.81;4986113;28;20033;-76
2021/09/22 04:11:11;;;;;;;11.85;8.35;;;;;;;10.22;77.63;101690.91;4991349;28;20049;-75
2021/09/22 04:13:37;;;;;;;11.77;8.80;;;;;;;10.20;77.85;101682.00;5001021;28;20022;-76
2021/09/22 04:16:02;;;;;;;12.02;9.32;;;;;;;10.20;77.96;101686.72;5015570;28;20087;-76
2021/09/22 04:18:28;;;;;;;15.00;9.48;;;;;;;10.22;77.88;101685.38;4985656;28;20394;-76
2021/09/22 04:20:53;;;;;;;14.73;9.98;;;;;;;10.18;77.90;101686.16;4999103;28;20045;-76
2021/09/22 04:23:19;;;;;;;15.40;10.70;;;;;;;10.18;78.13;101694.47;5015974;28;20037;-75
2021/09/22 04:25:45;;;;;;;13.25;9.48;;;;;;;10.18;77.81;101688.91;5001343;28;20037;-75
2021/09/22 04:28:10;;;;;;;14.73;9.60;;;;;;;10.16;78.07;101696.66;4982925;28;20073;-76
2021/09/22 04:30:36;;;;;;;15.52;10.40;;;;;;;10.13;78.21;101697.19;5001737;28;20060;-75
2021/09/22 04:33:02;;;;;;;15.35;9.77;;;;;;;10.11;77.83;101694.66;5016429;28;20026;-76
2021/09/22 04:35:29;;;;;;;11.52;8.90;;;;;;;10.11;77.88;101693.84;4999293;28;20117;-76
2021/09/22 04:37:54;;;;;;;16.25;9.85;;;;;;;10.07;78.13;101688.81;5009705;28;20083;-75
2021/09/22 04:40:20;;;;;;;19.10;12.60;;;;;;;10.04;78.95;101692.13;5008725;28;20034;-75
2021/09/22 04:42:45;;;;;;;18.60;11.98;;;;;;;10.06;78.45;101689.91;5000488;28;20044;-76
2021/09/22 04:45:11;;;;;;;16.30;10.55;;;;;;;10.02;78.06;101688.75;5005281;28;20112;-76
2021/09/22 04:47:37;;;;;;;14.27;10.32;;;;;;;10.02;78.34;101694.31;4980460;28;20034;-76
2021/09/22 04:50:13;;;;;;;15.48;10.00;;;;;;;9.98;78.16;101679.28;4982027;28;20041;-76
2021/09/22 04:52:38;;;;;;;14.68;9.98;;;;;;;9.98;78.00;101684.00;4999948;28;20049;-76
2021/09/22 04:55:07;;;;;;;16.08;10.63;;;;;;;9.99;77.95;101682.91;4996140;28;20054;-76
2021/09/22 04:57:42;;;;;;;14.07;9.75;;;;;;;9.97;77.80;101682.31;4978362;28;20042;-76
2021/09/22 05:00:10;;;;;;;13.68;9.88;;;;;;;9.93;77.76;101682.00;4979394;28;20026;-76
2021/09/22 05:02:41;;;;;;;14.65;10.18;;;;;;;9.92;77.87;101687.81;4972947;28;20449;-76
2021/09/22 05:05:09;;;;;;;13.73;8.90;;;;;;;9.91;77.88;101686.97;4981913;28;20038;-76
2021/09/22 05:08:00;;;;;;;16.60;10.38;;;;;;;9.88;78.28;101681.94;4978426;28;20446;-76
2021/09/22 05:11:03;;;;;;;18.90;11.13;;;;;;;9.88;78.08;101678.34;4965184;28;20037;-76
2021/09/22 05:13:31;;;;;;;16.60;10.85;;;;;;;9.88;77.93;101684.72;4977441;28;20513;-77
2021/09/22 05:19:31;;;;;;;17.35;10.90;;;;;;;9.82;78.13;101689.38;4984066;28;20052;-77
2021/09/22 05:26:34;;;;;;;16.67;10.70;;;;;;;9.77;78.02;101692.09;4933936;29;20047;-76
2021/09/22 05:29:05;;;;;;;19.50;11.13;;;;;;;9.77;78.10;101686.53;4896424;29;20516;-76
2021/09/22 05:31:34;;;;;;;15.77;10.80;;;;;;;9.71;78.12;101693.13;4938150;29;20039;-76
2021/09/22 05:34:08;;;;;;;17.33;10.75;;;;;;;9.71;78.42;101695.91;4927442;29;20046;-76
2021/09/22 05:36:43;;;;;;;16.23;10.80;;;;;;;9.69;78.35;101700.03;4909994;29;20111;-76
2021/09/22 05:39:31;;;;;;;17.17;10.85;;;;;;;9.69;78.15;101700.03;4941161;29;20050;-76
2021/09/22 05:42:00;;;;;;;13.82;10.20;;;;;;;9.62;78.25;101692.75;4957851;29;20042;-76
2021/09/22 05:44:36;;;;;;;14.45;9.80;;;;;;;9.62;78.24;101689.97;4928139;28;20406;-76
2021/09/22 05:47:05;;;;;;;19.48;12.57;;;;;;;9.61;78.66;101693.00;4937847;28;20136;-76
2021/09/22 05:49:30;;;;;;;19.42;12.32;;;;;;;9.58;79.33;101694.38;4922480;29;20604;-74
2021/09/22 05:51:56;;;;;;;18.17;12.55;;;;;;;9.59;79.41;101698.00;4946195;28;20125;-75
2021/09/22 05:54:21;;;;;;;18.75;12.43;;;;;;;9.54;79.42;101690.44;4957175;29;20035;-75
2021/09/22 05:56:48;;;;;;;21.30;13.05;;;;;;;9.55;79.14;101691.28;4945348;29;20649;-76
2021/09/22 05:59:13;;;;;;;18.77;12.80;;;;;;;9.57;79.20;101697.41;4970769;28;20037;-76
2021/09/22 06:01:42;;;;;;;19.50;12.50;;;;;;;9.56;79.31;101693.78;5006558;28;20029;-76
2021/09/22 06:07:08;;;;;;;18.93;11.80;;;;;;;9.53;79.54;101699.03;4994417;28;20038;-76
2021/09/22 06:09:55;;;;;;;18.52;12.73;;;;;;;9.51;79.95;101699.28;4979000;28;20029;-76
2021/09/22 06:12:28;;;;;;;22.40;14.23;;;;;;;9.50;79.96;101694.84;4970401;28;20478;-76
2021/09/22 06:15:02;;;;;;;22.08;14.45;;;;;;;9.51;80.77;101690.94;4974984;28;20029;-76
2021/09/22 06:18:13;;;;;;;19.33;13.13;;;;;;;9.52;80.19;101695.41;5025462;28;20033;-76
2021/09/22 06:20:57;;;;;;;18.27;12.65;;;;;;;9.54;80.46;101693.22;5006907;28;20025;-76
2021/09/22 06:23:29;;;;;;;18.63;12.85;;;;;;;9.61;79.79;101696.63;5003982;28;20032;-76
2021/09/22 06:25:59;;;;;;;20.92;12.55;;;;;;;9.58;79.87;101699.06;5009448;28;20028;-75
2021/09/22 06:28:27;;;;;;;20.25;12.60;;;;;;;9.60;80.13;101694.09;4987955;28;20084;-76
2021/09/22 06:30:57;;;;;;;21.48;12.60;;;;;;;9.65;80.04;101710.81;5007612;28;20036;-76
2021/09/22 06:33:25;;;;;;;19.63;12.07;;;;;;;9.74;79.53;101706.47;5002002;28;20030;-66
2021/09/22 06:35:51;;;;;;;16.92;11.38;;;;;;;9.80;80.41;101710.16;5026204;28;21139;-68
2021/09/22 06:38:16;;;;;;;20.30;12.57;;;;;;;9.84;80.52;101703.00;5029343;28;20052;-67
2021/09/22 06:40:41;;;;;;;21.38;13.85;;;;;;;9.88;80.73;101700.53;5028673;28;20409;-67
2021/09/22 06:43:07;;;;;;;18.75;12.90;;;;;;;9.89;80.15;101700.28;5007746;28;20477;-67
2021/09/22 06:45:33;;;;;;;20.73;13.77;;;;;;;9.92;81.29;101702.53;5023325;28;20045;-68
2021/09/22 06:47:58;;;;;;;22.05;13.57;;;;;;;9.99;81.19;101705.09;5016439;28;20089;-68
2021/09/22 06:50:24;;;;;;;22.65;14.85;;;;;;;10.05;81.46;101704.03;5002897;28;20108;-67
2021/09/22 06:52:49;;;;;;;22.70;14.90;;;;;;;10.12;81.04;101699.13;5018272;28;20017;-67
2021/09/22 06:55:15;;;;;;;21.13;14.02;;;;;;;10.21;81.42;101685.63;5002661;28;20034;-68
2021/09/22 06:57:41;;;;;;;20.92;13.70;;;;;;;10.29;80.85;101688.78;4983630;28;20037;-67
2021/09/22 07:00:09;;;;;;;26.52;16.90;;;;;;;10.40;83.58;101686.09;5017985;28;20478;-67
2021/09/22 07:02:36;;;;;;;21.70;14.93;;;;;;;10.49;81.37;101690.06;5018812;28;20033;-67
2021/09/22 07:05:02;;;;;;;26.00;16.67;;;;;;;10.58;81.98;101693.19;5012954;28;20043;-67
2021/09/22 07:07:27;;;;;;;23.67;16.15;;;;;;;10.68;82.62;101693.28;5012612;28;20033;-67
2021/09/22 07:09:53;;;;;;;23.60;15.77;;;;;;;10.82;81.77;101699.22;4990582;28;20044;-67
2021/09/22 07:12:18;;;;;;;22.63;14.93;;;;;;;10.93;81.69;101695.41;5000956;28;20022;-68
2021/09/22 07:14:44;;;;;;;34.30;22.02;;;;;;;11.04;87.52;101693.53;4985674;28;20037;-67
2021/09/22 07:17:10;;;;;;;28.48;18.27;;;;;;;11.15;84.40;101689.72;4970284;28;20026;-67
2021/09/22 07:19:35;;;;;;;40.22;23.92;;;;;;;11.25;87.17;101692.53;5016758;28;20037;-68
2021/09/22 07:22:01;;;;;;;24.15;16.63;;;;;;;11.39;84.61;101692.88;4969744;28;20026;-68
2021/09/22 07:24:27;;;;;;;32.35;21.00;;;;;;;11.50;87.43;101699.31;5017579;28;20029;-67
2021/09/22 07:26:53;;;;;;;27.25;19.08;;;;;;;11.66;85.29;101697.44;5018393;28;20040;-67
2021/09/22 07:29:18;;;;;;;30.33;19.92;;;;;;;11.76;86.52;101698.34;5003309;28;20029;-67
2021/09/22 07:31:44;;;;;;;28.65;19.52;;;;;;;11.91;85.35;101702.31;5018378;28;20026;-67
2021/09/22 07:34:09;;;;;;;35.08;21.42;;;;;;;12.05;85.75;101700.66;5033784;28;20029;-67
2021/09/22 07:36:35;;;;;;;33.55;21.40;;;;;;;12.17;85.95;101709.59;5017349;28;20033;-67
2021/09/22 07:39:01;;;;;;;30.15;20.20;;;;;;;12.30;85.99;101705.44;5001704;28;20394;-68
2021/09/22 07:41:26;;;;;;;35.95;23.35;;;;;;;12.40;86.44;101701.84;4985733;28;20039;-68
2021/09/22 07:43:52;;;;;;;33.25;22.30;;;;;;;12.51;86.66;101703.53;4999714;28;20088;-68
2021/09/22 07:46:17;;;;;;;30.35;20.45;;;;;;;12.65;85.70;101699.06;4987907;28;20054;-68
2021/09/22 07:48:43;;;;;;;33.47;20.70;;;;;;;12.81;84.74;101697.06;4979737;28;20040;-68
2021/09/22 07:51:08;;;;;;;31.80;20.90;;;;;;;12.95;85.09;101692.63;4978404;28;20023;-68
2021/09/22 07:53:34;;;;;;;29.90;19.80;;;;;;;13.10;84.60;101688.97;4981010;28;20402;-68
2021/09/22 07:55:59;;;;;;;27.83;18.90;;;;;;;13.25;83.22;101685.28;4982106;28;20049;-68
2021/09/22 07:58:25;;;;;;;29.95;19.73;;;;;;;13.42;83.96;101696.13;4973587;28;20042;-68
2021/09/22 08:00:50;;;;;;;31.58;20.35;;;;;;;13.58;83.38;101694.13;4996538;28;20045;-68
2021/09/22 08:03:15;;;;;;;28.73;18.55;;;;;;;13.73;83.00;101702.44;4965917;28;20046;-68
2021/09/22 08:05:41;;;;;;;32.05;20.17;;;;;;;13.88;83.62;101695.94;4997334;28;20038;-68
2021/09/22 08:08:07;;;;;;;31.95;22.33;;;;;;;13.98;83.87;101697.84;4980512;28;20053;-68
2021/09/22 08:10:36;;;;;;;33.60;23.30;;;;;;;14.09;83.87;101702.25;4979702;28;20041;-68
2021/09/22 08:13:02;;;;;;;32.67;22.55;;;;;;;14.22;82.77;101701.59;4980962;28;20022;-68
2021/09/22 08:15:27;;;;;;;31.13;21.75;;;;;;;14.32;83.03;101697.91;4996619;28;20092;-68
2021/09/22 08:17:53;;;;;;;30.70;21.20;;;;;;;14.47;82.81;101706.16;4981416;28;20033;-68
2021/09/22 08:20:18;;;;;;;33.53;22.75;;;;;;;14.63;82.76;101709.72;5007472;28;20029;-68
2021/09/22 08:22:44;;;;;;;36.85;24.33;;;;;;;14.75;82.76;101704.56;4997970;28;20030;-68
2021/09/22 08:25:10;;;;;;;32.15;22.70;;;;;;;14.88;82.76;101699.44;4980385;28;20033;-68
2021/09/22 08:27:35;;;;;;;33.20;22.15;;;;;;;15.02;81.80;101699.59;4977301;28;20105;-68
2021/09/22 08:30:01;;;;;;;32.97;22.27;;;;;;;15.14;81.60;101700.84;4992835;28;20026;-68
2021/09/22 08:32:27;;;;;;;32.80;21.50;;;;;;;15.31;81.82;101710.75;4981685;28;20034;-68
2021/09/22 08:34:52;;;;;;;30.50;20.65;;;;;;;15.47;81.24;101711.41;4954823;28;20066;-68
2021/09/22 08:37:18;;;;;;;33.47;21.90;;;;;;;15.52;80.22;101708.53;5005951;28;20034;-68
2021/09/22 08:39:43;;;;;;;28.55;20.02;;;;;;;15.68;81.07;101718.44;4979487;28;20042;-67
2021/09/22 08:42:09;;;;;;;27.27;19.80;;;;;;;15.87;80.79;101729.69;4964307;28;20038;-68
2021/09/22 08:44:34;;;;;;;26.63;19.55;;;;;;;16.03;79.84;101725.53;5001149;28;20053;-68
2021/09/22 08:47:00;;;;;;;28.05;21.00;;;;;;;16.16;79.19;101726.78;4990226;28;20038;-68
2021/09/22 08:49:25;;;;;;;29.98;21.08;;;;;;;16.20;79.02;101730.63;4996215;28;20074;-68
2021/09/22 08:51:51;;;;;;;28.17;20.48;;;;;;;16.37;79.21;101735.69;4994717;28;20054;-68
2021/09/22 08:54:16;;;;;;;29.52;21.15;;;;;;;16.42;78.24;101732.00;4982160;28;20093;-68
2021/09/22 08:56:42;;;;;;;28.63;19.98;;;;;;;16.60;78.67;101728.31;4974028;28;20506;-68
2021/09/22 08:59:08;;;;;;;29.17;20.48;;;;;;;16.72;76.96;101725.88;4980898;28;20030;-68
2021/09/22 09:01:34;;;;;;;30.33;20.40;;;;;;;16.83;76.41;101720.16;4985387;28;20045;-68
2021/09/22 09:04:15;;;;;;;24.40;18.58;;;;;;;16.94;75.72;101722.47;4994343;28;20133;-68
2021/09/22 09:06:41;;;;;;;30.02;19.83;;;;;;;17.12;75.36;101731.94;5000723;28;20094;-68
2021/09/22 09:09:06;;;;;;;26.80;18.95;;;;;;;17.22;74.48;101722.53;5016461;28;20506;-68
2021/09/22 09:11:33;;;;;;;22.17;16.05;;;;;;;17.34;75.44;101725.63;4968957;28;20029;-68
2021/09/22 09:14:00;;;;;;;20.83;16.00;;;;;;;17.50;74.53;101723.38;4982052;28;20030;-67
2021/09/22 09:34:58;;;;;;;21.25;16.70;;;;;;;18.40;69.62;101720.84;4996345;28;20038;-76
2021/09/22 09:37:35;;;;;;;22.00;16.63;;;;;;;18.51;68.50;101713.00;4970024;28;20081;-70
2021/09/22 09:40:32;;;;;;;21.77;16.30;;;;;;;18.61;68.28;101717.53;5056808;28;20047;-69
2021/09/22 09:43:00;;;;;;;20.73;16.23;;;;;;;18.70;67.35;101715.66;5055380;28;20440;-69
2021/09/22 09:45:37;;;;;;;21.83;15.55;;;;;;;18.79;66.93;101708.13;5038015;28;20048;-69
2021/09/22 09:48:07;;;;;;;19.48;15.23;;;;;;;18.89;67.46;101705.03;5036581;28;20029;-69
2021/09/22 09:50:42;;;;;;;20.13;15.60;;;;;;;18.93;66.39;101699.59;5040067;28;20028;-69
2021/09/22 09:53:08;;;;;;;20.33;16.08;;;;;;;18.97;65.92;101701.44;5023331;28;20025;-70
2021/09/22 09:55:36;;;;;;;18.58;14.60;;;;;;;19.07;66.59;101699.50;5040697;28;20431;-70
2021/09/22 09:58:02;;;;;;;18.33;13.30;;;;;;;19.26;67.21;101696.47;5023421;28;20465;-70
2021/09/22 10:16:14;;;;;;;11.45;10.07;;;;;;;20.24;62.39;101681.97;4988256;28;20069;-75
2021/09/22 10:19:04;;;;;;;14.90;11.60;;;;;;;20.28;61.78;101682.13;4974752;28;20050;-75
2021/09/22 10:21:41;;;;;;;14.07;11.38;;;;;;;20.30;62.14;101679.81;4948434;28;20038;-76
2021/09/22 10:24:21;;;;;;;16.10;13.45;;;;;;;20.30;60.21;101686.28;4957789;28;20529;-75
2021/09/22 10:26:52;;;;;;;13.57;10.73;;;;;;;20.36;60.30;101691.75;4946683;28;20034;-75
2021/09/22 10:29:19;;;;;;;12.60;10.23;;;;;;;20.42;61.43;101685.63;4974720;28;20054;-75
2021/09/22 10:31:45;;;;;;;14.85;11.95;;;;;;;20.41;59.57;101683.13;4946092;28;20100;-75
2021/09/22 10:34:49;;;;;;;13.23;10.25;;;;;;;20.50;60.03;101684.78;4960158;28;20039;-75
2021/09/22 10:37:54;;;;;;;13.68;10.00;;;;;;;20.58;60.11;101682.31;5008147;28;20544;-75
2021/09/22 10:41:09;;;;;;;16.08;11.45;;;;;;;20.63;59.60;101677.31;5027269;28;20091;-75
2021/09/22 10:44:42;;;;;;;;;;;;;;;;;;;;;
2021/09/22 10:51:16;;;;;;;13.65;10.02;;;;;;;20.92;58.66;101664.47;4973095;28;20639;-76
2021/09/22 10:54:13;;;;;;;14.45;11.48;;;;;;;20.93;57.55;101661.31;4972803;28;20042;-76
2021/09/22 10:57:11;;;;;;;11.25;10.00;;;;;;;21.01;57.31;101658.81;4904793;29;20472;-76
2021/09/22 11:04:26;;;;;;;;;;;;;;;;;;;;;
2021/09/22 11:20:17;;;;;;;13.20;10.80;;;;;;;21.56;55.79;101636.16;4804679;29;20102;-75
2021/09/22 11:32:13;;;;;;;11.50;8.73;;;;;;;21.78;56.91;101632.16;4787580;29;20072;-76
2021/09/22 11:35:50;;;;;;;12.70;9.95;;;;;;;21.90;56.47;101628.59;4752654;29;20062;-75
2021/09/22 11:38:56;;;;;;;12.48;10.20;;;;;;;22.02;54.30;101613.69;4717922;30;20132;-75
2021/09/22 11:46:30;;;;;;;12.18;9.77;;;;;;;22.05;53.62;101622.31;4722126;30;20045;-75
2021/09/22 11:49:26;;;;;;;9.95;8.95;;;;;;;22.20;53.32;101618.03;4720515;30;20059;-75
2021/09/22 11:52:45;;;;;;;11.52;9.63;;;;;;;22.37;52.81;101619.91;4736143;29;20067;-75
2021/09/22 11:56:14;;;;;;;12.40;9.25;;;;;;;22.58;52.37;101616.19;4750912;30;20039;-75
2021/09/22 11:59:32;;;;;;;10.02;7.93;;;;;;;22.78;53.38;101612.47;4755061;30;20153;-75
2021/09/22 12:03:02;;;;;;;9.65;8.45;;;;;;;22.83;51.46;101615.09;4784477;29;20039;-75
2021/09/22 12:05:49;;;;;;;9.25;7.80;;;;;;;22.92;50.08;101607.28;4846040;29;20467;-75
2021/09/22 12:08:25;;;;;;;8.05;6.90;;;;;;;22.99;50.59;101603.13;4929903;28;20390;-75
2021/09/22 12:10:55;;;;;;;11.55;7.85;;;;;;;23.06;50.83;101603.34;5016529;28;20061;-75
2021/09/22 12:39:26;;;;;;;9.15;7.60;;;;;;;23.34;49.25;101569.44;5028832;28;20063;-78
2021/09/22 12:51:50;;;;;;;7.55;6.32;;;;;;;23.58;49.66;101560.91;4824942;29;20533;-78
2021/09/22 12:59:14;;;;;;;;;;;;;;;;;;;;;
2021/09/22 13:02:26;;;;;;;9.82;7.30;;;;;;;23.56;48.60;101553.94;4829817;29;20712;-78
2021/09/22 13:06:05;;;;;;;9.93;7.35;;;;;;;23.62;49.36;101541.16;4839090;29;20246;-78
2021/09/22 13:09:39;;;;;;;8.43;6.88;;;;;;;23.60;49.41;101543.56;4844830;29;20168;-78
2021/09/22 13:25:39;;;;;;;8.13;6.97;;;;;;;23.48;48.98;101520.88;4988607;28;20046;-78
2021/09/22 13:28:13;;;;;;;10.25;7.38;;;;;;;23.47;49.35;101519.25;4980217;28;20046;-77
2021/09/22 13:30:48;;;;;;;7.38;6.47;;;;;;;23.46;49.32;101514.75;4964095;28;20042;-76
2021/09/22 13:33:16;;;;;;;10.75;7.53;;;;;;;23.36;48.66;101505.56;4964858;28;20105;-77
2021/09/22 13:35:42;;;;;;;11.18;6.88;;;;;;;23.31;48.60;101505.78;4994748;28;20046;-69
2021/09/22 13:38:08;;;;;;;8.10;6.38;;;;;;;23.36;48.52;101505.56;4989255;28;20391;-69
2021/09/22 13:40:33;;;;;;;9.40;7.47;;;;;;;23.34;48.43;101507.09;4991214;28;20042;-70
2021/09/22 13:42:59;;;;;;;9.63;6.07;;;;;;;23.38;48.65;101493.88;4992964;28;20046;-70
2021/09/22 13:45:24;;;;;;;8.50;6.15;;;;;;;23.47;48.93;101491.72;5002077;28;20530;-70
2021/09/22 13:47:49;;;;;;;7.45;6.03;;;;;;;23.52;49.71;101496.31;5005573;28;20034;-70
2021/09/22 13:50:15;;;;;;;7.10;6.40;;;;;;;23.63;48.49;101489.78;4999583;28;20046;-70